Hlavní strana
METAR-TAF:

METAR-TAF

Letiště :

In Aménas, Alžírsko

zeměpisná šířka: 28-03N, zeměpisná délka: 009-38E, výška: 562 m

Aktuální stav počasí

Zpráva byla vytvořena před 15 minutami, v 20:00 UTC
Východní vítr 11 kt
Teplota 20°C
Tlak 1022 hPa
Viditelnost 10 km a více
Polojasno ve výšce 4600 ft
Oblačno až skoro zataženo ve výšce 8000 ft

METAR: DAUZ 252000Z 09011KT 9999 SCT046 BKN080 20/// Q1022

Čas: 21:15 (20:15 UTC)

Předpověď počasí

Zpráva byla vytvořena před 3 hodinami a 15 minutami, v 17:00 UTC
Předpověď platná od 25 v 18 UTC do 26 v 18 UTC
Východní vítr 8 kt
Viditelnost 10 km a více
Polojasno ve výšce 4600 ft
Oblačno až skoro zataženo ve výšce 10000 ft
Pravděpodobnost 30% :
Dočasný
od 25 v 18 UTC do 26 v 03 UTC
Skoro jasno ve výšce 4000 ft, Vertikální cumulus.
Změna
od 26 v 10 UTC do 26 v 12 UTC
Západoseverozápadní vítr 10 kt

TAF: DAUZ 251700Z 2518/2618 10008KT 9999 SCT046 BKN100 PROB30 TEMPO 2518/2603 FEW040TCU BECMG 2610/2612 29010KT

Stav a předpovědi počasí z více než 4 000 letišť (zprávy METAR a TAF).

Červené a žluté tečky na mapě představují dostupné meteorologické stanice.

Když kurzor umístíte na tečku, zobrazí se název stanice.

Pak kliknutím zobrazíte stav a předpověď počasí.

Chcete-li změnit mapu, kliknutím na zelené tlačítko se znaménkem +mapu přiblížíte, kliknutím na zelené tlačítko se znaménkem – mapu oddálíte a kliknutím na zelené šipky přejdete na sousední mapy.


METAR-TAF: